Crestwood, Kentucky
Current Conditions -  °F | °C
As of 4:00 AM on Thursday 27 Nov 2014 (Local Time) from KLOU Reporting Station
Light Snow Light Snow  
Wind Chill: 26°   Ceiling: 800
Heat Index: 32°   Visibility: 3mi
Dew Point: 30°   Wind: 7mph
Humidity: 92%   Direction: 340°NNW
Pressure: 30.15"   Gusts: NA
Location:  38.32°N, 85.47°W
Report Text: KLOU 270900Z AUTO 34006KT 3SM -SN BR BKN008 OVC026 00/M01 A3015 RMK AO2 P0000 T00001011
Loading
Personal Weather Stations






























Interactive Weather Map New forecast layout! Learn more

10-Day Weather Forecast

Advertisements
Track Severe Weather on mobile